Pocatello Regional Airport
KPIH : now visible

Airfield :











YOU CAN JOIN US ON...

 
LOGIN :

Register | Disclaimer

   EN    FR    IT 

 









Legend :    VFR   Marginal VFR   IFR   Intensive IFR   Very Intensive IFR
Visi :
Ceiling :
>= 8 km
>= 3000ft
5 to 8 km
1000 to 3000 ft
1500m to 5 km
500 to 1000 ft
800 to 1500m
200 to 500 ft
< 800m
< 200 ft
Symbols :   Thunderstorms  Fog  Heavy snow  Heavy precipitations  Wind > 20 kt






- Airport Elevation : 4452 ft
- IATA code : PIH


KPIH - Pocatello Regional

CURRENT METAR :
  • 250453Z AUTO 20007KT 10SM BKN110 13/01 A2976 RMK AO2 SLP051 T01280006

EXPIRED METARs :
  • 250353Z 18006KT 10SM CLR 12/02 A2976 RMK AO2 SLP055 T01170017
  • 250253Z 20006KT 10SM OVC110 14/01 A2976 RMK AO2 SLP057 T01390006 56006
  • 250153Z 00000KT 10SM SCT100 16/03 A2976 RMK AO2 SLP059 T01610033
  • 250053Z 30005KT 10SM SCT110 17/04 A2977 RMK AO2 SLP067 T01670039

TAF KPIH
Valid from the 25 at 00:00 until the 26 at 00:00 UTC


242320Z 2500/2524 23006KT P6SM FEW060
FM250400 18008KT P6SM SCT070 BKN120 BKN200
FM251000 VRB04KT P6SM FEW060 BKN100 BKN180
FM251300 24015KT P6SM VCSH SCT060 BKN090 BKN180
FM251500 25015G25KT P6SM SCT020 BKN060 OVC090
FM252000 27015G25KT P6SM VCTS SCT040CB BKN100 BKN160
KZLC FIR / North America



MET'MAP, your aeronautical weather chart ! - Copyright ORBIFLY December 2007 - Disclaimer

ORBIFLY MET'MAP TEAM :

Programming & Development : Alexandra Zaïnal
Original concept : Baudouin d'Aumeries
Technical & hardware support : Manuel Goepfert
Assistance : Marc-Olivier Méhu




SOURCES & CREDITS :

   NOAA       Earth
Advisory